sensor_id;sensor_type;location;lat;lon;timestamp;P1;durP1;ratioP1;P2;durP2;ratioP2
3171;SDS011;1597;51.572;6.992;2022-08-14T00:00:46;8.60;;;7.90;;
3171;SDS011;1597;51.572;6.992;2022-08-14T00:03:22;6.93;;;6.23;;
3171;SDS011;1597;51.572;6.992;2022-08-14T00:05:51;7.50;;;6.90;;
3171;SDS011;1597;51.572;6.992;2022-08-14T00:08:19;7.27;;;6.57;;
3171;SDS011;1597;51.572;6.992;2022-08-14T00:10:45;6.57;;;5.97;;
3171;SDS011;1597;51.572;6.992;2022-08-14T00:13:12;7.80;;;7.10;;
3171;SDS011;1597;51.572;6.992;2022-08-14T00:15:40;7.00;;;6.40;;
3171;SDS011;1597;51.572;6.992;2022-08-14T00:18:09;6.97;;;6.47;;
3171;SDS011;1597;51.572;6.992;2022-08-14T00:20:39;7.27;;;6.60;;
3171;SDS011;1597;51.572;6.992;2022-08-14T00:23:06;6.87;;;6.27;;
3171;SDS011;1597;51.572;6.992;2022-08-14T00:25:34;7.10;;;6.50;;
3171;SDS011;1597;51.572;6.992;2022-08-14T00:28:01;7.13;;;6.60;;
3171;SDS011;1597;51.572;6.992;2022-08-14T00:30:27;6.90;;;6.40;;
3171;SDS011;1597;51.572;6.992;2022-08-14T00:32:54;7.00;;;6.40;;
3171;SDS011;1597;51.572;6.992;2022-08-14T00:35:20;8.70;;;7.70;;
3171;SDS011;1597;51.572;6.992;2022-08-14T00:37:47;7.10;;;6.40;;
3171;SDS011;1597;51.572;6.992;2022-08-14T00:40:14;6.97;;;6.40;;
3171;SDS011;1597;51.572;6.992;2022-08-14T00:42:42;7.90;;;7.10;;
3171;SDS011;1597;51.572;6.992;2022-08-14T00:45:09;8.07;;;7.47;;
3171;SDS011;1597;51.572;6.992;2022-08-14T00:47:40;7.00;;;6.40;;
3171;SDS011;1597;51.572;6.992;2022-08-14T00:50:08;7.07;;;6.47;;
3171;SDS011;1597;51.572;6.992;2022-08-14T00:52:36;8.90;;;6.87;;
3171;SDS011;1597;51.572;6.992;2022-08-14T00:55:03;6.73;;;6.17;;
3171;SDS011;1597;51.572;6.992;2022-08-14T00:57:32;7.60;;;7.00;;
3171;SDS011;1597;51.572;6.992;2022-08-14T01:00:00;6.70;;;6.20;;
3171;SDS011;1597;51.572;6.992;2022-08-14T01:02:29;8.23;;;7.30;;
3171;SDS011;1597;51.572;6.992;2022-08-14T01:04:56;7.27;;;6.57;;
3171;SDS011;1597;51.572;6.992;2022-08-14T01:07:25;7.90;;;7.23;;
3171;SDS011;1597;51.572;6.992;2022-08-14T01:09:54;7.30;;;6.60;;
3171;SDS011;1597;51.572;6.992;2022-08-14T01:12:26;7.70;;;6.97;;
3171;SDS011;1597;51.572;6.992;2022-08-14T01:14:52;8.23;;;7.53;;
3171;SDS011;1597;51.572;6.992;2022-08-14T01:17:20;7.90;;;7.20;;
3171;SDS011;1597;51.572;6.992;2022-08-14T01:19:48;7.60;;;7.00;;
3171;SDS011;1597;51.572;6.992;2022-08-14T01:22:33;7.57;;;7.00;;
3171;SDS011;1597;51.572;6.992;2022-08-14T01:24:59;8.20;;;7.37;;
3171;SDS011;1597;51.572;6.992;2022-08-14T01:27:25;8.07;;;7.37;;
3171;SDS011;1597;51.572;6.992;2022-08-14T01:29:54;7.37;;;6.87;;
3171;SDS011;1597;51.572;6.992;2022-08-14T01:32:21;6.70;;;6.20;;
3171;SDS011;1597;51.572;6.992;2022-08-14T01:34:51;7.90;;;7.20;;
3171;SDS011;1597;51.572;6.992;2022-08-14T01:37:20;8.30;;;7.70;;
3171;SDS011;1597;51.572;6.992;2022-08-14T01:39:48;8.00;;;7.40;;
3171;SDS011;1597;51.572;6.992;2022-08-14T01:42:16;13.67;;;8.77;;
3171;SDS011;1597;51.572;6.992;2022-08-14T01:44:43;7.60;;;6.90;;
3171;SDS011;1597;51.572;6.992;2022-08-14T01:47:15;8.33;;;7.63;;
3171;SDS011;1597;51.572;6.992;2022-08-14T01:49:43;7.87;;;7.27;;
3171;SDS011;1597;51.572;6.992;2022-08-14T01:52:09;8.50;;;7.70;;
3171;SDS011;1597;51.572;6.992;2022-08-14T01:54:37;8.13;;;7.53;;
3171;SDS011;1597;51.572;6.992;2022-08-14T01:57:03;7.00;;;6.50;;
3171;SDS011;1597;51.572;6.992;2022-08-14T01:59:35;9.67;;;8.77;;
3171;SDS011;1597;51.572;6.992;2022-08-14T02:02:05;8.43;;;7.70;;
3171;SDS011;1597;51.572;6.992;2022-08-14T02:04:38;7.87;;;7.17;;
3171;SDS011;1597;51.572;6.992;2022-08-14T02:07:05;8.40;;;7.60;;
3171;SDS011;1597;51.572;6.992;2022-08-14T02:09:34;7.40;;;6.80;;
3171;SDS011;1597;51.572;6.992;2022-08-14T02:12:03;8.50;;;7.57;;
3171;SDS011;1597;51.572;6.992;2022-08-14T02:14:31;8.23;;;7.40;;
3171;SDS011;1597;51.572;6.992;2022-08-14T02:16:57;7.60;;;6.90;;
3171;SDS011;1597;51.572;6.992;2022-08-14T02:19:26;8.60;;;7.80;;
3171;SDS011;1597;51.572;6.992;2022-08-14T02:21:55;8.00;;;7.30;;
3171;SDS011;1597;51.572;6.992;2022-08-14T02:24:24;8.70;;;7.93;;
3171;SDS011;1597;51.572;6.992;2022-08-14T02:26:54;8.97;;;8.20;;
3171;SDS011;1597;51.572;6.992;2022-08-14T02:29:24;8.27;;;7.57;;
3171;SDS011;1597;51.572;6.992;2022-08-14T02:31:53;9.30;;;8.50;;
3171;SDS011;1597;51.572;6.992;2022-08-14T02:34:24;7.07;;;6.50;;
3171;SDS011;1597;51.572;6.992;2022-08-14T02:36:59;7.47;;;6.73;;
3171;SDS011;1597;51.572;6.992;2022-08-14T02:39:29;8.23;;;7.53;;
3171;SDS011;1597;51.572;6.992;2022-08-14T02:41:56;8.33;;;7.60;;
3171;SDS011;1597;51.572;6.992;2022-08-14T02:44:23;8.27;;;7.67;;
3171;SDS011;1597;51.572;6.992;2022-08-14T02:46:50;8.90;;;7.50;;
3171;SDS011;1597;51.572;6.992;2022-08-14T02:49:19;8.37;;;7.67;;
3171;SDS011;1597;51.572;6.992;2022-08-14T02:51:51;8.30;;;7.70;;
3171;SDS011;1597;51.572;6.992;2022-08-14T02:54:19;8.70;;;8.00;;
3171;SDS011;1597;51.572;6.992;2022-08-14T02:56:47;8.80;;;7.93;;
3171;SDS011;1597;51.572;6.992;2022-08-14T02:59:15;9.53;;;7.93;;
3171;SDS011;1597;51.572;6.992;2022-08-14T03:01:41;8.50;;;7.70;;
3171;SDS011;1597;51.572;6.992;2022-08-14T03:04:07;7.83;;;7.13;;
3171;SDS011;1597;51.572;6.992;2022-08-14T03:06:34;10.63;;;7.40;;
3171;SDS011;1597;51.572;6.992;2022-08-14T03:09:02;9.60;;;8.80;;
3171;SDS011;1597;51.572;6.992;2022-08-14T03:11:29;8.67;;;7.87;;
3171;SDS011;1597;51.572;6.992;2022-08-14T03:13:55;9.80;;;8.87;;
3171;SDS011;1597;51.572;6.992;2022-08-14T03:16:22;9.43;;;8.63;;
3171;SDS011;1597;51.572;6.992;2022-08-14T03:18:49;9.93;;;9.03;;
3171;SDS011;1597;51.572;6.992;2022-08-14T03:21:19;10.13;;;7.00;;
3171;SDS011;1597;51.572;6.992;2022-08-14T03:23:48;8.70;;;7.90;;
3171;SDS011;1597;51.572;6.992;2022-08-14T03:26:19;11.30;;;8.00;;
3171;SDS011;1597;51.572;6.992;2022-08-14T03:28:50;8.73;;;8.03;;
3171;SDS011;1597;51.572;6.992;2022-08-14T03:31:16;9.60;;;8.70;;
3171;SDS011;1597;51.572;6.992;2022-08-14T03:33:46;9.93;;;9.13;;
3171;SDS011;1597;51.572;6.992;2022-08-14T03:36:14;9.90;;;9.00;;
3171;SDS011;1597;51.572;6.992;2022-08-14T03:38:44;9.47;;;8.53;;
3171;SDS011;1597;51.572;6.992;2022-08-14T03:41:17;8.70;;;8.00;;
3171;SDS011;1597;51.572;6.992;2022-08-14T03:43:49;8.80;;;8.00;;
3171;SDS011;1597;51.572;6.992;2022-08-14T03:46:21;9.73;;;8.93;;
3171;SDS011;1597;51.572;6.992;2022-08-14T03:48:52;9.53;;;8.73;;
3171;SDS011;1597;51.572;6.992;2022-08-14T03:51:20;8.43;;;7.63;;
3171;SDS011;1597;51.572;6.992;2022-08-14T03:53:53;8.30;;;7.50;;
3171;SDS011;1597;51.572;6.992;2022-08-14T03:56:21;8.80;;;8.10;;
3171;SDS011;1597;51.572;6.992;2022-08-14T03:58:51;9.00;;;8.10;;
3171;SDS011;1597;51.572;6.992;2022-08-14T04:01:22;9.10;;;8.37;;
3171;SDS011;1597;51.572;6.992;2022-08-14T04:03:51;8.73;;;8.00;;
3171;SDS011;1597;51.572;6.992;2022-08-14T04:06:23;9.77;;;8.97;;
3171;SDS011;1597;51.572;6.992;2022-08-14T04:08:48;11.53;;;10.20;;
3171;SDS011;1597;51.572;6.992;2022-08-14T04:11:16;9.90;;;9.10;;
3171;SDS011;1597;51.572;6.992;2022-08-14T04:13:43;10.10;;;9.10;;
3171;SDS011;1597;51.572;6.992;2022-08-14T04:16:16;11.13;;;8.60;;
3171;SDS011;1597;51.572;6.992;2022-08-14T04:18:46;10.67;;;9.73;;
3171;SDS011;1597;51.572;6.992;2022-08-14T04:21:20;9.93;;;9.03;;
3171;SDS011;1597;51.572;6.992;2022-08-14T04:23:49;11.17;;;8.87;;
3171;SDS011;1597;51.572;6.992;2022-08-14T04:26:16;10.30;;;9.40;;
3171;SDS011;1597;51.572;6.992;2022-08-14T04:28:46;9.03;;;8.33;;
3171;SDS011;1597;51.572;6.992;2022-08-14T04:31:13;10.30;;;9.47;;
3171;SDS011;1597;51.572;6.992;2022-08-14T04:33:41;8.93;;;8.23;;
3171;SDS011;1597;51.572;6.992;2022-08-14T04:36:07;11.00;;;8.80;;
3171;SDS011;1597;51.572;6.992;2022-08-14T04:38:33;9.80;;;8.90;;
3171;SDS011;1597;51.572;6.992;2022-08-14T04:41:18;10.13;;;9.27;;
3171;SDS011;1597;51.572;6.992;2022-08-14T04:44:22;10.90;;;9.80;;
3171;SDS011;1597;51.572;6.992;2022-08-14T04:46:47;11.10;;;10.10;;
3171;SDS011;1597;51.572;6.992;2022-08-14T04:49:32;10.10;;;9.10;;
3171;SDS011;1597;51.572;6.992;2022-08-14T04:51:58;9.00;;;8.30;;
3171;SDS011;1597;51.572;6.992;2022-08-14T04:54:24;10.07;;;9.10;;
3171;SDS011;1597;51.572;6.992;2022-08-14T04:56:53;11.37;;;10.27;;
3171;SDS011;1597;51.572;6.992;2022-08-14T04:59:19;11.17;;;10.20;;
3171;SDS011;1597;51.572;6.992;2022-08-14T05:01:46;10.40;;;9.40;;
3171;SDS011;1597;51.572;6.992;2022-08-14T05:04:13;10.00;;;9.10;;
3171;SDS011;1597;51.572;6.992;2022-08-14T05:06:39;10.90;;;9.90;;
3171;SDS011;1597;51.572;6.992;2022-08-14T05:09:05;10.67;;;9.60;;
3171;SDS011;1597;51.572;6.992;2022-08-14T05:11:31;15.30;;;10.20;;
3171;SDS011;1597;51.572;6.992;2022-08-14T05:14:00;10.07;;;9.27;;
3171;SDS011;1597;51.572;6.992;2022-08-14T05:16:26;10.37;;;9.47;;
3171;SDS011;1597;51.572;6.992;2022-08-14T05:18:55;11.17;;;10.07;;
3171;SDS011;1597;51.572;6.992;2022-08-14T05:21:22;9.50;;;8.60;;
3171;SDS011;1597;51.572;6.992;2022-08-14T05:23:49;10.33;;;9.33;;
3171;SDS011;1597;51.572;6.992;2022-08-14T05:26:16;10.17;;;9.20;;
3171;SDS011;1597;51.572;6.992;2022-08-14T05:28:45;10.23;;;9.30;;
3171;SDS011;1597;51.572;6.992;2022-08-14T05:31:12;11.77;;;9.97;;
3171;SDS011;1597;51.572;6.992;2022-08-14T05:33:41;11.60;;;10.60;;
3171;SDS011;1597;51.572;6.992;2022-08-14T05:36:09;12.00;;;10.80;;
3171;SDS011;1597;51.572;6.992;2022-08-14T05:38:37;10.63;;;9.70;;
3171;SDS011;1597;51.572;6.992;2022-08-14T05:41:08;11.53;;;9.97;;
3171;SDS011;1597;51.572;6.992;2022-08-14T05:43:38;11.33;;;10.33;;
3171;SDS011;1597;51.572;6.992;2022-08-14T05:46:05;11.73;;;10.73;;
3171;SDS011;1597;51.572;6.992;2022-08-14T05:48:37;11.20;;;10.20;;
3171;SDS011;1597;51.572;6.992;2022-08-14T05:51:03;11.73;;;10.67;;
3171;SDS011;1597;51.572;6.992;2022-08-14T05:53:29;11.87;;;10.77;;
3171;SDS011;1597;51.572;6.992;2022-08-14T05:55:55;13.30;;;11.90;;
3171;SDS011;1597;51.572;6.992;2022-08-14T05:58:23;10.70;;;9.70;;
3171;SDS011;1597;51.572;6.992;2022-08-14T06:00:50;12.17;;;11.00;;
3171;SDS011;1597;51.572;6.992;2022-08-14T06:03:17;11.37;;;10.47;;
3171;SDS011;1597;51.572;6.992;2022-08-14T06:05:46;11.50;;;10.50;;
3171;SDS011;1597;51.572;6.992;2022-08-14T06:10:48;12.63;;;11.37;;
3171;SDS011;1597;51.572;6.992;2022-08-14T06:13:16;12.83;;;11.63;;
3171;SDS011;1597;51.572;6.992;2022-08-14T06:15:43;12.73;;;11.53;;
3171;SDS011;1597;51.572;6.992;2022-08-14T06:18:10;12.47;;;11.37;;
3171;SDS011;1597;51.572;6.992;2022-08-14T06:20:36;15.37;;;12.20;;
3171;SDS011;1597;51.572;6.992;2022-08-14T06:23:03;13.80;;;12.50;;
3171;SDS011;1597;51.572;6.992;2022-08-14T06:25:29;14.70;;;13.00;;
3171;SDS011;1597;51.572;6.992;2022-08-14T06:27:55;14.00;;;12.70;;
3171;SDS011;1597;51.572;6.992;2022-08-14T06:30:23;13.23;;;11.20;;
3171;SDS011;1597;51.572;6.992;2022-08-14T06:32:53;16.03;;;11.70;;
3171;SDS011;1597;51.572;6.992;2022-08-14T06:35:20;14.20;;;12.80;;
3171;SDS011;1597;51.572;6.992;2022-08-14T06:37:51;13.97;;;12.67;;
3171;SDS011;1597;51.572;6.992;2022-08-14T06:40:26;13.97;;;12.67;;
3171;SDS011;1597;51.572;6.992;2022-08-14T06:42:59;12.40;;;11.23;;
3171;SDS011;1597;51.572;6.992;2022-08-14T06:45:34;13.17;;;11.67;;
3171;SDS011;1597;51.572;6.992;2022-08-14T06:48:02;13.70;;;12.10;;
3171;SDS011;1597;51.572;6.992;2022-08-14T06:50:32;13.53;;;12.33;;
3171;SDS011;1597;51.572;6.992;2022-08-14T06:52:58;13.60;;;12.33;;
3171;SDS011;1597;51.572;6.992;2022-08-14T06:55:24;13.37;;;12.17;;
3171;SDS011;1597;51.572;6.992;2022-08-14T06:57:50;13.03;;;11.83;;
3171;SDS011;1597;51.572;6.992;2022-08-14T07:00:21;12.27;;;11.17;;
3171;SDS011;1597;51.572;6.992;2022-08-14T07:02:52;11.67;;;10.67;;
3171;SDS011;1597;51.572;6.992;2022-08-14T07:05:37;12.73;;;11.47;;
3171;SDS011;1597;51.572;6.992;2022-08-14T07:08:16;12.07;;;10.97;;
3171;SDS011;1597;51.572;6.992;2022-08-14T07:10:50;11.80;;;10.87;;
3171;SDS011;1597;51.572;6.992;2022-08-14T07:13:19;12.60;;;11.30;;
3171;SDS011;1597;51.572;6.992;2022-08-14T07:15:50;12.60;;;11.60;;
3171;SDS011;1597;51.572;6.992;2022-08-14T07:18:19;11.37;;;10.47;;
3171;SDS011;1597;51.572;6.992;2022-08-14T07:20:45;11.17;;;10.17;;
3171;SDS011;1597;51.572;6.992;2022-08-14T07:23:11;12.47;;;11.47;;
3171;SDS011;1597;51.572;6.992;2022-08-14T07:25:38;13.20;;;11.90;;
3171;SDS011;1597;51.572;6.992;2022-08-14T07:28:13;12.63;;;11.53;;
3171;SDS011;1597;51.572;6.992;2022-08-14T07:30:43;11.87;;;10.90;;
3171;SDS011;1597;51.572;6.992;2022-08-14T07:33:10;12.23;;;11.00;;
3171;SDS011;1597;51.572;6.992;2022-08-14T07:35:37;11.60;;;10.50;;
3171;SDS011;1597;51.572;6.992;2022-08-14T07:38:05;11.97;;;10.77;;
3171;SDS011;1597;51.572;6.992;2022-08-14T07:40:32;11.57;;;10.57;;
3171;SDS011;1597;51.572;6.992;2022-08-14T07:42:59;11.83;;;10.73;;
3171;SDS011;1597;51.572;6.992;2022-08-14T07:45:25;12.20;;;11.20;;
3171;SDS011;1597;51.572;6.992;2022-08-14T07:47:52;13.10;;;11.90;;
3171;SDS011;1597;51.572;6.992;2022-08-14T07:50:21;10.00;;;9.10;;
3171;SDS011;1597;51.572;6.992;2022-08-14T07:52:49;13.70;;;12.30;;
3171;SDS011;1597;51.572;6.992;2022-08-14T07:55:16;13.50;;;12.40;;
3171;SDS011;1597;51.572;6.992;2022-08-14T07:57:43;12.53;;;11.43;;
3171;SDS011;1597;51.572;6.992;2022-08-14T08:00:11;13.20;;;12.10;;
3171;SDS011;1597;51.572;6.992;2022-08-14T08:02:44;11.00;;;10.00;;
3171;SDS011;1597;51.572;6.992;2022-08-14T08:05:13;15.70;;;11.57;;
3171;SDS011;1597;51.572;6.992;2022-08-14T08:07:41;11.60;;;10.70;;
3171;SDS011;1597;51.572;6.992;2022-08-14T08:10:09;12.03;;;11.03;;
3171;SDS011;1597;51.572;6.992;2022-08-14T08:13:05;12.40;;;11.30;;
3171;SDS011;1597;51.572;6.992;2022-08-14T08:15:42;11.43;;;10.43;;
3171;SDS011;1597;51.572;6.992;2022-08-14T08:18:18;11.97;;;10.97;;
3171;SDS011;1597;51.572;6.992;2022-08-14T08:20:47;11.53;;;10.47;;
3171;SDS011;1597;51.572;6.992;2022-08-14T08:23:17;11.50;;;10.40;;
3171;SDS011;1597;51.572;6.992;2022-08-14T08:25:46;15.37;;;13.97;;
3171;SDS011;1597;51.572;6.992;2022-08-14T08:28:19;13.40;;;12.20;;
3171;SDS011;1597;51.572;6.992;2022-08-14T08:33:24;14.27;;;13.07;;
3171;SDS011;1597;51.572;6.992;2022-08-14T08:35:59;13.57;;;12.27;;
3171;SDS011;1597;51.572;6.992;2022-08-14T08:38:30;13.10;;;11.90;;
3171;SDS011;1597;51.572;6.992;2022-08-14T08:40:58;13.80;;;12.57;;
3171;SDS011;1597;51.572;6.992;2022-08-14T08:43:30;13.10;;;12.00;;
3171;SDS011;1597;51.572;6.992;2022-08-14T08:46:02;12.33;;;11.23;;
3171;SDS011;1597;51.572;6.992;2022-08-14T08:48:41;11.63;;;10.60;;
3171;SDS011;1597;51.572;6.992;2022-08-14T08:51:21;12.20;;;11.20;;
3171;SDS011;1597;51.572;6.992;2022-08-14T08:53:58;12.40;;;11.20;;
3171;SDS011;1597;51.572;6.992;2022-08-14T08:56:43;11.50;;;10.53;;
3171;SDS011;1597;51.572;6.992;2022-08-14T08:59:28;12.53;;;11.43;;
3171;SDS011;1597;51.572;6.992;2022-08-14T09:02:00;10.80;;;9.90;;
3171;SDS011;1597;51.572;6.992;2022-08-14T09:04:36;12.17;;;11.17;;
3171;SDS011;1597;51.572;6.992;2022-08-14T09:07:11;10.77;;;9.87;;
3171;SDS011;1597;51.572;6.992;2022-08-14T09:09:38;11.43;;;10.50;;
3171;SDS011;1597;51.572;6.992;2022-08-14T09:12:16;12.20;;;11.00;;
3171;SDS011;1597;51.572;6.992;2022-08-14T09:14:43;10.60;;;9.80;;
3171;SDS011;1597;51.572;6.992;2022-08-14T09:17:12;12.07;;;10.70;;
3171;SDS011;1597;51.572;6.992;2022-08-14T09:19:38;11.17;;;10.27;;
3171;SDS011;1597;51.572;6.992;2022-08-14T09:22:06;10.63;;;9.90;;
3171;SDS011;1597;51.572;6.992;2022-08-14T09:24:32;11.07;;;10.07;;
3171;SDS011;1597;51.572;6.992;2022-08-14T09:26:58;11.20;;;10.17;;
3171;SDS011;1597;51.572;6.992;2022-08-14T09:29:25;11.63;;;10.53;;
3171;SDS011;1597;51.572;6.992;2022-08-14T09:31:51;11.90;;;10.80;;
3171;SDS011;1597;51.572;6.992;2022-08-14T09:40:29;10.43;;;9.53;;
3171;SDS011;1597;51.572;6.992;2022-08-14T09:46:24;10.47;;;9.50;;
3171;SDS011;1597;51.572;6.992;2022-08-14T09:48:58;9.93;;;9.13;;
3171;SDS011;1597;51.572;6.992;2022-08-14T09:51:26;10.03;;;9.13;;
3171;SDS011;1597;51.572;6.992;2022-08-14T09:54:04;11.40;;;10.40;;
3171;SDS011;1597;51.572;6.992;2022-08-14T09:56:48;11.03;;;9.93;;
3171;SDS011;1597;51.572;6.992;2022-08-14T09:59:16;9.30;;;8.50;;
3171;SDS011;1597;51.572;6.992;2022-08-14T10:01:47;8.77;;;8.07;;
3171;SDS011;1597;51.572;6.992;2022-08-14T10:04:21;10.27;;;9.37;;
3171;SDS011;1597;51.572;6.992;2022-08-14T10:06:51;9.20;;;8.40;;
3171;SDS011;1597;51.572;6.992;2022-08-14T10:09:17;12.90;;;11.80;;
3171;SDS011;1597;51.572;6.992;2022-08-14T10:11:54;11.67;;;10.67;;
3171;SDS011;1597;51.572;6.992;2022-08-14T10:14:23;11.20;;;10.30;;
3171;SDS011;1597;51.572;6.992;2022-08-14T10:16:54;11.40;;;10.40;;
3171;SDS011;1597;51.572;6.992;2022-08-14T10:19:22;11.40;;;10.50;;
3171;SDS011;1597;51.572;6.992;2022-08-14T10:21:59;11.70;;;10.80;;
3171;SDS011;1597;51.572;6.992;2022-08-14T10:24:32;9.00;;;8.30;;
3171;SDS011;1597;51.572;6.992;2022-08-14T10:27:12;11.57;;;10.47;;
3171;SDS011;1597;51.572;6.992;2022-08-14T10:29:41;10.20;;;9.30;;
3171;SDS011;1597;51.572;6.992;2022-08-14T10:32:18;11.77;;;10.80;;
3171;SDS011;1597;51.572;6.992;2022-08-14T10:34:47;10.53;;;9.53;;
3171;SDS011;1597;51.572;6.992;2022-08-14T10:37:15;10.63;;;9.63;;
3171;SDS011;1597;51.572;6.992;2022-08-14T10:39:44;10.53;;;9.60;;
3171;SDS011;1597;51.572;6.992;2022-08-14T10:42:33;8.53;;;7.93;;
3171;SDS011;1597;51.572;6.992;2022-08-14T10:47:45;10.20;;;9.30;;
3171;SDS011;1597;51.572;6.992;2022-08-14T10:50:15;9.90;;;9.00;;
3171;SDS011;1597;51.572;6.992;2022-08-14T10:52:41;13.27;;;10.90;;
3171;SDS011;1597;51.572;6.992;2022-08-14T10:57:47;10.83;;;9.83;;
3171;SDS011;1597;51.572;6.992;2022-08-14T11:00:19;10.47;;;9.47;;
3171;SDS011;1597;51.572;6.992;2022-08-14T11:05:25;10.90;;;10.00;;
3171;SDS011;1597;51.572;6.992;2022-08-14T11:08:13;9.07;;;8.27;;
3171;SDS011;1597;51.572;6.992;2022-08-14T11:10:43;9.13;;;8.33;;
3171;SDS011;1597;51.572;6.992;2022-08-14T11:13:28;12.37;;;11.23;;
3171;SDS011;1597;51.572;6.992;2022-08-14T11:16:15;10.40;;;8.80;;
3171;SDS011;1597;51.572;6.992;2022-08-14T11:18:45;10.13;;;8.50;;
3171;SDS011;1597;51.572;6.992;2022-08-14T11:21:16;9.47;;;8.80;;
3171;SDS011;1597;51.572;6.992;2022-08-14T11:23:46;9.97;;;9.17;;
3171;SDS011;1597;51.572;6.992;2022-08-14T11:26:14;9.40;;;8.70;;
3171;SDS011;1597;51.572;6.992;2022-08-14T11:28:48;13.07;;;12.07;;
3171;SDS011;1597;51.572;6.992;2022-08-14T11:31:21;11.73;;;10.60;;
3171;SDS011;1597;51.572;6.992;2022-08-14T11:33:48;12.77;;;11.77;;
3171;SDS011;1597;51.572;6.992;2022-08-14T11:36:21;13.90;;;12.60;;
3171;SDS011;1597;51.572;6.992;2022-08-14T11:38:52;10.13;;;9.30;;
3171;SDS011;1597;51.572;6.992;2022-08-14T11:41:18;10.40;;;9.50;;
3171;SDS011;1597;51.572;6.992;2022-08-14T11:43:46;9.80;;;8.90;;
3171;SDS011;1597;51.572;6.992;2022-08-14T11:46:15;8.80;;;8.10;;
3171;SDS011;1597;51.572;6.992;2022-08-14T11:48:46;8.40;;;7.70;;
3171;SDS011;1597;51.572;6.992;2022-08-14T11:51:16;8.90;;;8.17;;
3171;SDS011;1597;51.572;6.992;2022-08-14T11:54:00;8.43;;;7.63;;
3171;SDS011;1597;51.572;6.992;2022-08-14T11:56:33;9.27;;;8.50;;
3171;SDS011;1597;51.572;6.992;2022-08-14T11:59:00;9.70;;;8.80;;
3171;SDS011;1597;51.572;6.992;2022-08-14T12:01:27;11.70;;;10.60;;
3171;SDS011;1597;51.572;6.992;2022-08-14T12:04:18;16.67;;;15.20;;
3171;SDS011;1597;51.572;6.992;2022-08-14T12:06:48;15.70;;;14.20;;
3171;SDS011;1597;51.572;6.992;2022-08-14T12:09:26;9.77;;;8.97;;
3171;SDS011;1597;51.572;6.992;2022-08-14T12:11:59;10.00;;;9.20;;
3171;SDS011;1597;51.572;6.992;2022-08-14T12:14:26;13.20;;;12.20;;
3171;SDS011;1597;51.572;6.992;2022-08-14T12:16:59;9.90;;;9.10;;
3171;SDS011;1597;51.572;6.992;2022-08-14T12:19:41;10.00;;;9.20;;
3171;SDS011;1597;51.572;6.992;2022-08-14T12:22:13;11.43;;;10.47;;
3171;SDS011;1597;51.572;6.992;2022-08-14T12:24:40;17.07;;;15.57;;
3171;SDS011;1597;51.572;6.992;2022-08-14T12:27:08;13.50;;;10.13;;
3171;SDS011;1597;51.572;6.992;2022-08-14T12:29:37;9.33;;;8.63;;
3171;SDS011;1597;51.572;6.992;2022-08-14T12:32:05;9.30;;;8.50;;
3171;SDS011;1597;51.572;6.992;2022-08-14T12:34:33;10.87;;;9.97;;
3171;SDS011;1597;51.572;6.992;2022-08-14T12:37:04;9.93;;;9.10;;
3171;SDS011;1597;51.572;6.992;2022-08-14T12:39:34;10.30;;;8.67;;
3171;SDS011;1597;51.572;6.992;2022-08-14T12:42:01;9.17;;;8.33;;
3171;SDS011;1597;51.572;6.992;2022-08-14T12:44:34;11.03;;;9.97;;
3171;SDS011;1597;51.572;6.992;2022-08-14T12:49:30;9.47;;;8.77;;
3171;SDS011;1597;51.572;6.992;2022-08-14T12:51:58;10.30;;;9.50;;
3171;SDS011;1597;51.572;6.992;2022-08-14T12:54:26;9.87;;;9.07;;
3171;SDS011;1597;51.572;6.992;2022-08-14T12:57:11;9.70;;;8.90;;
3171;SDS011;1597;51.572;6.992;2022-08-14T12:59:37;9.60;;;8.80;;
3171;SDS011;1597;51.572;6.992;2022-08-14T13:02:04;9.60;;;8.70;;
3171;SDS011;1597;51.572;6.992;2022-08-14T13:04:30;8.70;;;8.10;;
3171;SDS011;1597;51.572;6.992;2022-08-14T13:07:00;9.40;;;8.70;;
3171;SDS011;1597;51.572;6.992;2022-08-14T13:09:31;8.97;;;8.17;;
3171;SDS011;1597;51.572;6.992;2022-08-14T13:11:57;10.00;;;9.10;;
3171;SDS011;1597;51.572;6.992;2022-08-14T13:14:28;10.53;;;9.27;;
3171;SDS011;1597;51.572;6.992;2022-08-14T13:16:57;10.20;;;9.40;;
3171;SDS011;1597;51.572;6.992;2022-08-14T13:19:25;10.37;;;9.57;;
3171;SDS011;1597;51.572;6.992;2022-08-14T13:21:52;10.53;;;9.67;;
3171;SDS011;1597;51.572;6.992;2022-08-14T13:24:22;10.40;;;9.27;;
3171;SDS011;1597;51.572;6.992;2022-08-14T13:26:50;9.73;;;8.93;;
3171;SDS011;1597;51.572;6.992;2022-08-14T13:29:21;9.90;;;8.90;;
3171;SDS011;1597;51.572;6.992;2022-08-14T13:31:51;9.70;;;8.90;;
3171;SDS011;1597;51.572;6.992;2022-08-14T13:34:22;9.20;;;8.43;;
3171;SDS011;1597;51.572;6.992;2022-08-14T13:36:50;10.17;;;9.30;;
3171;SDS011;1597;51.572;6.992;2022-08-14T13:39:20;10.00;;;9.00;;
3171;SDS011;1597;51.572;6.992;2022-08-14T13:41:51;9.20;;;8.40;;
3171;SDS011;1597;51.572;6.992;2022-08-14T13:44:18;11.60;;;10.57;;
3171;SDS011;1597;51.572;6.992;2022-08-14T13:46:47;12.43;;;9.57;;
3171;SDS011;1597;51.572;6.992;2022-08-14T13:49:14;11.10;;;10.30;;
3171;SDS011;1597;51.572;6.992;2022-08-14T13:51:43;11.40;;;10.40;;
3171;SDS011;1597;51.572;6.992;2022-08-14T13:54:14;10.53;;;9.63;;
3171;SDS011;1597;51.572;6.992;2022-08-14T13:56:46;9.47;;;8.77;;
3171;SDS011;1597;51.572;6.992;2022-08-14T13:59:12;18.10;;;16.20;;
3171;SDS011;1597;51.572;6.992;2022-08-14T14:01:39;11.43;;;10.53;;
3171;SDS011;1597;51.572;6.992;2022-08-14T14:04:16;13.77;;;9.67;;
3171;SDS011;1597;51.572;6.992;2022-08-14T14:06:43;13.40;;;12.03;;
3171;SDS011;1597;51.572;6.992;2022-08-14T14:09:20;13.33;;;12.23;;
3171;SDS011;1597;51.572;6.992;2022-08-14T14:11:57;10.80;;;9.90;;
3171;SDS011;1597;51.572;6.992;2022-08-14T14:14:23;11.30;;;10.30;;
3171;SDS011;1597;51.572;6.992;2022-08-14T14:16:51;11.00;;;10.00;;
3171;SDS011;1597;51.572;6.992;2022-08-14T14:19:20;10.13;;;9.33;;
3171;SDS011;1597;51.572;6.992;2022-08-14T14:21:49;12.60;;;11.40;;
3171;SDS011;1597;51.572;6.992;2022-08-14T14:24:16;10.43;;;9.63;;
3171;SDS011;1597;51.572;6.992;2022-08-14T14:26:46;9.73;;;8.93;;
3171;SDS011;1597;51.572;6.992;2022-08-14T14:29:13;9.67;;;8.77;;
3171;SDS011;1597;51.572;6.992;2022-08-14T14:31:39;9.20;;;8.50;;
3171;SDS011;1597;51.572;6.992;2022-08-14T14:34:06;9.90;;;9.20;;
3171;SDS011;1597;51.572;6.992;2022-08-14T14:36:33;9.30;;;8.50;;
3171;SDS011;1597;51.572;6.992;2022-08-14T14:39:03;10.20;;;9.30;;
3171;SDS011;1597;51.572;6.992;2022-08-14T14:41:32;11.40;;;10.30;;
3171;SDS011;1597;51.572;6.992;2022-08-14T14:44:02;10.20;;;9.30;;
3171;SDS011;1597;51.572;6.992;2022-08-14T14:46:34;10.47;;;9.60;;
3171;SDS011;1597;51.572;6.992;2022-08-14T14:49:03;10.90;;;8.00;;
3171;SDS011;1597;51.572;6.992;2022-08-14T14:51:31;9.40;;;8.60;;
3171;SDS011;1597;51.572;6.992;2022-08-14T14:53:57;10.93;;;9.83;;
3171;SDS011;1597;51.572;6.992;2022-08-14T14:56:25;9.03;;;8.20;;
3171;SDS011;1597;51.572;6.992;2022-08-14T14:58:55;9.30;;;8.53;;
3171;SDS011;1597;51.572;6.992;2022-08-14T15:01:21;9.17;;;8.40;;
3171;SDS011;1597;51.572;6.992;2022-08-14T15:03:48;10.13;;;9.33;;
3171;SDS011;1597;51.572;6.992;2022-08-14T15:06:18;10.07;;;9.17;;
3171;SDS011;1597;51.572;6.992;2022-08-14T15:08:47;9.57;;;8.80;;
3171;SDS011;1597;51.572;6.992;2022-08-14T15:11:13;10.20;;;9.40;;
3171;SDS011;1597;51.572;6.992;2022-08-14T15:13:40;8.60;;;7.90;;
3171;SDS011;1597;51.572;6.992;2022-08-14T15:16:07;8.53;;;7.90;;
3171;SDS011;1597;51.572;6.992;2022-08-14T15:18:33;8.43;;;7.73;;
3171;SDS011;1597;51.572;6.992;2022-08-14T15:21:00;10.43;;;9.50;;
3171;SDS011;1597;51.572;6.992;2022-08-14T15:23:27;10.57;;;9.67;;
3171;SDS011;1597;51.572;6.992;2022-08-14T15:25:56;8.93;;;8.23;;
3171;SDS011;1597;51.572;6.992;2022-08-14T15:28:23;8.97;;;8.17;;
3171;SDS011;1597;51.572;6.992;2022-08-14T15:30:51;8.20;;;7.60;;
3171;SDS011;1597;51.572;6.992;2022-08-14T15:33:19;8.50;;;7.70;;
3171;SDS011;1597;51.572;6.992;2022-08-14T15:36:06;7.90;;;7.30;;
3171;SDS011;1597;51.572;6.992;2022-08-14T15:38:34;9.40;;;8.60;;
3171;SDS011;1597;51.572;6.992;2022-08-14T15:41:00;11.67;;;10.67;;
3171;SDS011;1597;51.572;6.992;2022-08-14T15:43:27;9.17;;;8.47;;